Time;durP1;ratioP1;P1;durP2;ratioP2;P2;SDS_P1;SDS_P2;PMS_P1;PMS_P2;Temp;Humidity;BMP_temperature;BMP_pressure;BME280_temperature;BME280_humidity;BME280_pressure;Samples;Min_cycle;Max_cycle;Signal;HPM_P1;HPM_P2
2023/12/22 00:00:30;;;;;;;14.73;3.67;;;;;;;4.94;100.00;100310.19;5036522;28;20396;-87
2023/12/22 00:02:55;;;;;;;20.48;2.45;;;;;;;5.02;100.00;100313.66;5056342;28;20072;-85
2023/12/22 00:05:21;;;;;;;15.23;2.67;;;;;;;5.00;100.00;100331.16;5072829;28;20044;-85
2023/12/22 00:07:46;;;;;;;12.07;2.47;;;;;;;5.00;100.00;100315.41;5074384;28;20044;-87
2023/12/22 00:10:12;;;;;;;11.95;2.35;;;;;;;5.00;100.00;100310.16;5073038;28;20028;-87
2023/12/22 00:12:40;;;;;;;12.18;2.67;;;;;;;4.91;100.00;100303.22;5073087;28;20037;-87
2023/12/22 00:15:06;;;;;;;15.00;2.60;;;;;;;4.94;100.00;100318.06;5073909;28;20052;-83
2023/12/22 00:17:32;;;;;;;14.10;3.20;;;;;;;4.96;100.00;100327.66;5073058;28;20073;-86
2023/12/22 00:19:59;;;;;;;9.90;2.72;;;;;;;4.92;100.00;100327.69;5074000;28;20122;-87
2023/12/22 00:22:25;;;;;;;14.25;3.28;;;;;;;4.97;100.00;100336.44;5056540;28;20527;-86
2023/12/22 00:24:51;;;;;;;15.48;2.97;;;;;;;4.96;100.00;100359.16;5072874;28;20135;-87
2023/12/22 00:27:16;;;;;;;15.27;2.60;;;;;;;5.00;100.00;100364.41;5073859;28;20060;-87
2023/12/22 00:29:41;;;;;;;13.98;2.60;;;;;;;5.04;100.00;100368.72;5052687;28;20055;-88
2023/12/22 00:32:09;;;;;;;13.13;2.65;;;;;;;5.02;100.00;100367.84;5070834;28;20040;-86
2023/12/22 00:34:35;;;;;;;16.23;2.67;;;;;;;5.02;100.00;100345.13;5072566;28;20032;-87
2023/12/22 00:37:00;;;;;;;15.25;3.03;;;;;;;4.99;100.00;100345.13;5072263;28;20090;-86
2023/12/22 00:39:26;;;;;;;16.52;2.90;;;;;;;4.98;100.00;100342.53;5070380;28;20039;-87
2023/12/22 00:41:52;;;;;;;16.02;3.55;;;;;;;4.98;100.00;100347.78;5056450;28;20047;-87
2023/12/22 00:44:17;;;;;;;15.82;3.20;;;;;;;4.96;100.00;100353.91;5055095;28;20068;-87
2023/12/22 00:46:43;;;;;;;15.77;2.47;;;;;;;5.00;100.00;100359.16;5030486;28;20064;-86
2023/12/22 00:49:08;;;;;;;14.68;2.92;;;;;;;4.95;100.00;100346.91;5055231;28;20040;-86
2023/12/22 00:51:34;;;;;;;17.08;3.00;;;;;;;4.96;100.00;100353.91;5072049;28;20497;-87
2023/12/22 00:53:59;;;;;;;13.27;3.20;;;;;;;4.92;100.00;100336.47;5072205;28;20041;-87
2023/12/22 00:56:24;;;;;;;16.48;3.75;;;;;;;4.93;100.00;100338.19;5073214;28;20035;-86
2023/12/22 00:58:50;;;;;;;20.48;2.75;;;;;;;4.93;100.00;100351.31;5083166;28;20024;-87
2023/12/22 01:01:15;;;;;;;15.85;3.05;;;;;;;4.90;100.00;100345.22;5055114;28;20044;-87
2023/12/22 01:03:41;;;;;;;20.52;3.20;;;;;;;4.88;100.00;100344.34;5055478;28;20036;-86
2023/12/22 01:06:06;;;;;;;16.83;2.90;;;;;;;4.86;100.00;100333.84;5051985;28;20037;-86
2023/12/22 01:08:32;;;;;;;16.83;3.50;;;;;;;4.87;100.00;100335.63;5037239;28;20048;-87
2023/12/22 01:10:57;;;;;;;15.70;2.92;;;;;;;4.86;100.00;100335.63;5073347;28;20079;-86
2023/12/22 01:13:23;;;;;;;18.15;3.53;;;;;;;4.85;100.00;100336.50;5073055;28;20496;-87
2023/12/22 01:15:48;;;;;;;21.67;3.42;;;;;;;4.83;100.00;100357.50;5073176;28;20076;-85
2023/12/22 01:18:14;;;;;;;18.52;4.07;;;;;;;4.89;100.00;100339.06;5071680;28;20101;-83
2023/12/22 01:20:39;;;;;;;19.73;3.53;;;;;;;4.94;100.00;100341.66;5071640;28;20058;-87
2023/12/22 01:23:05;;;;;;;18.90;3.10;;;;;;;5.06;100.00;100352.09;5054986;28;20036;-86
2023/12/22 01:25:30;;;;;;;25.40;3.53;;;;;;;5.08;100.00;100365.22;5066885;28;20094;-86
2023/12/22 01:27:56;;;;;;;12.27;3.25;;;;;;;5.12;100.00;100369.56;5043380;28;20029;-86
2023/12/22 01:30:21;;;;;;;19.73;3.40;;;;;;;5.18;100.00;100377.38;5051063;28;20037;-85
2023/12/22 01:32:47;;;;;;;17.33;3.40;;;;;;;5.18;100.00;100373.00;5054748;28;20505;-87
2023/12/22 01:35:12;;;;;;;15.88;3.60;;;;;;;5.22;100.00;100379.13;5072428;28;20046;-85
2023/12/22 01:37:38;;;;;;;12.63;3.22;;;;;;;5.21;100.00;100381.75;5072683;28;20041;-86
2023/12/22 01:40:04;;;;;;;18.60;3.30;;;;;;;5.23;100.00;100377.34;5071174;28;20040;-86
2023/12/22 01:42:30;;;;;;;18.45;3.65;;;;;;;5.21;100.00;100373.84;5071241;28;20036;-86
2023/12/22 01:44:56;;;;;;;24.55;3.80;;;;;;;5.20;100.00;100367.75;5072498;28;20044;-85
2023/12/22 01:47:22;;;;;;;20.83;3.50;;;;;;;5.24;100.00;100379.09;5066965;28;20028;-86
2023/12/22 01:49:48;;;;;;;16.38;3.25;;;;;;;5.28;100.00;100365.91;5071199;28;20372;-86
2023/12/22 01:52:15;;;;;;;24.90;4.07;;;;;;;5.31;100.00;100365.03;5070915;28;20055;-86
2023/12/22 01:54:41;;;;;;;20.17;3.55;;;;;;;5.36;100.00;100379.00;5071570;28;20048;-85
2023/12/22 01:57:06;;;;;;;16.92;3.72;;;;;;;5.37;100.00;100386.00;5072101;28;20021;-85
2023/12/22 01:59:34;;;;;;;23.40;3.53;;;;;;;5.38;100.00;100378.09;5076076;28;20058;-80
2023/12/22 02:02:02;;;;;;;25.67;3.95;;;;;;;5.47;100.00;100384.16;5037835;28;20049;-80
2023/12/22 02:04:28;;;;;;;17.15;3.63;;;;;;;5.51;100.00;100393.75;5065368;28;20028;-85
2023/12/22 02:06:53;;;;;;;22.08;3.75;;;;;;;5.52;100.00;100366.63;5071949;28;20102;-86
2023/12/22 02:09:19;;;;;;;18.55;3.58;;;;;;;5.57;100.00;100373.56;5070648;28;20067;-85
2023/12/22 02:11:44;;;;;;;12.63;2.88;;;;;;;5.54;100.00;100370.97;5072177;28;20024;-83
2023/12/22 02:14:10;;;;;;;17.50;3.67;;;;;;;5.56;100.00;100378.81;5087769;28;20048;-85
2023/12/22 02:16:39;;;;;;;20.25;4.20;;;;;;;5.64;100.00;100382.28;5075614;28;20041;-86
2023/12/22 02:19:22;;;;;;;14.43;3.45;;;;;;;5.63;100.00;100374.41;5083211;28;20032;-86
2023/12/22 02:22:05;;;;;;;17.75;3.45;;;;;;;5.64;100.00;100376.13;5070848;28;20032;-87
2023/12/22 02:24:30;;;;;;;21.48;3.13;;;;;;;5.62;100.00;100375.28;5054430;28;20036;-86
2023/12/22 02:27:07;;;;;;;18.77;3.67;;;;;;;5.58;100.00;100367.41;5070656;28;20043;-86
2023/12/22 02:30:06;;;;;;;15.05;2.90;;;;;;;5.53;100.00;100374.47;5072543;28;20425;-86
2023/12/22 02:32:35;;;;;;;24.40;3.60;;;;;;;5.57;100.00;100378.81;5021784;28;20068;-82
2023/12/22 02:35:04;;;;;;;21.65;3.60;;;;;;;5.63;100.00;100363.88;5072747;28;20127;-81
2023/12/22 02:37:32;;;;;;;20.55;3.50;;;;;;;5.70;100.00;100381.34;5072027;28;20072;-85
2023/12/22 02:39:59;;;;;;;21.90;3.40;;;;;;;5.75;97.90;100380.41;5055301;28;20094;-78
2023/12/22 02:42:29;;;;;;;14.93;2.90;;;;;;;5.73;98.62;100371.66;5051604;28;20036;-84
2023/12/22 02:44:59;;;;;;;17.70;3.05;;;;;;;5.81;99.01;100375.09;5050538;28;20056;-86
2023/12/22 02:47:27;;;;;;;20.08;4.53;;;;;;;5.78;97.87;100358.47;5044115;28;20747;-82
2023/12/22 02:49:53;;;;;;;17.33;3.13;;;;;;;5.84;97.06;100374.19;5071482;28;20115;-86
2023/12/22 02:52:18;;;;;;;20.45;3.80;;;;;;;5.81;98.29;100374.19;5079369;28;20468;-86
2023/12/22 02:54:43;;;;;;;23.08;4.32;;;;;;;5.85;97.52;100368.03;5053384;28;20131;-86
2023/12/22 02:57:09;;;;;;;21.92;3.80;;;;;;;5.88;99.27;100351.38;5071502;28;20060;-85
2023/12/22 02:59:36;;;;;;;21.38;4.40;;;;;;;5.93;99.11;100358.31;5070399;28;20083;-86
2023/12/22 03:02:01;;;;;;;17.60;3.92;;;;;;;5.93;100.00;100367.97;5070090;28;20036;-79
2023/12/22 03:04:27;;;;;;;18.42;3.55;;;;;;;5.93;100.00;100360.94;5071657;28;20066;-86
2023/12/22 03:06:52;;;;;;;19.15;4.00;;;;;;;5.89;100.00;100348.75;5071750;28;20345;-84
2023/12/22 03:09:18;;;;;;;16.30;3.05;;;;;;;5.86;100.00;100345.25;5057318;28;20036;-85
2023/12/22 03:11:44;;;;;;;25.38;3.30;;;;;;;5.90;100.00;100350.47;5074439;28;20033;-84
2023/12/22 03:14:10;;;;;;;22.38;3.55;;;;;;;5.80;100.00;100323.41;5057458;28;20141;-80
2023/12/22 03:16:36;;;;;;;22.10;3.83;;;;;;;5.78;100.00;100321.69;5075002;28;20464;-85
2023/12/22 03:19:01;;;;;;;19.38;4.32;;;;;;;5.75;100.00;100327.84;5057119;28;20123;-82
2023/12/22 03:21:27;;;;;;;17.20;3.22;;;;;;;5.73;100.00;100334.88;5075254;28;20169;-85
2023/12/22 03:23:52;;;;;;;18.15;3.53;;;;;;;5.73;100.00;100329.63;5075683;28;20033;-85
2023/12/22 03:26:17;;;;;;;19.95;3.63;;;;;;;5.74;100.00;100341.88;5075092;28;20033;-85
2023/12/22 03:28:43;;;;;;;14.57;2.90;;;;;;;5.72;100.00;100359.41;5074934;28;20211;-84
2023/12/22 03:31:08;;;;;;;11.98;2.83;;;;;;;5.74;100.00;100346.28;5073687;28;20418;-84
2023/12/22 03:33:34;;;;;;;17.23;3.45;;;;;;;5.72;100.00;100353.31;5056980;28;20055;-85
2023/12/22 03:35:59;;;;;;;17.33;3.55;;;;;;;5.72;100.00;100353.31;5073889;28;20024;-82
2023/12/22 03:38:25;;;;;;;15.95;3.10;;;;;;;5.77;100.00;100359.38;5074582;28;20526;-84
2023/12/22 03:40:50;;;;;;;13.93;3.05;;;;;;;5.82;100.00;100366.31;5056705;28;20066;-82
2023/12/22 03:43:16;;;;;;;17.23;3.47;;;;;;;5.86;100.00;100356.66;5074992;28;20048;-86
2023/12/22 03:45:41;;;;;;;17.77;2.90;;;;;;;5.93;100.00;100365.34;5053011;28;20488;-82
2023/12/22 03:48:07;;;;;;;15.95;2.60;;;;;;;5.95;100.00;100363.59;5072163;28;20051;-84
2023/12/22 03:50:32;;;;;;;13.80;3.17;;;;;;;5.99;100.00;100363.56;5073243;28;20041;-85
2023/12/22 03:52:58;;;;;;;17.48;3.15;;;;;;;6.10;100.00;100365.19;5056697;28;20068;-84
2023/12/22 03:55:23;;;;;;;15.70;3.17;;;;;;;6.11;100.00;100366.91;5072992;28;20064;-86
2023/12/22 03:57:49;;;;;;;14.65;2.97;;;;;;;6.12;100.00;100353.78;5087134;28;20037;-86
2023/12/22 04:00:16;;;;;;;13.32;3.17;;;;;;;6.16;100.00;100368.63;5073093;28;20041;-85
2023/12/22 04:02:41;;;;;;;16.00;2.80;;;;;;;6.20;99.81;100367.69;5056452;28;20032;-85
2023/12/22 04:05:07;;;;;;;15.88;3.08;;;;;;;6.27;99.35;100357.97;5065592;28;20066;-85
2023/12/22 04:07:32;;;;;;;12.63;3.42;;;;;;;6.32;97.62;100366.69;5072996;28;20041;-85
2023/12/22 04:09:59;;;;;;;19.00;3.83;;;;;;;6.33;97.36;100371.06;5067811;28;20036;-85
2023/12/22 04:12:24;;;;;;;13.57;2.90;;;;;;;6.36;98.43;100378.91;5074186;28;20033;-85
2023/12/22 04:14:50;;;;;;;14.25;2.75;;;;;;;6.43;98.36;100390.25;5067788;28;20087;-85
2023/12/22 04:17:15;;;;;;;19.55;3.95;;;;;;;6.43;97.88;100384.97;5064975;28;20029;-87
2023/12/22 04:19:40;;;;;;;19.77;3.50;;;;;;;6.47;96.52;100394.56;5073031;28;20119;-85
2023/12/22 04:22:06;;;;;;;13.88;3.30;;;;;;;6.53;96.78;100394.50;5072889;28;20032;-85
2023/12/22 04:24:31;;;;;;;14.40;3.22;;;;;;;6.58;94.29;100395.31;5073930;28;20032;-85
2023/12/22 04:26:57;;;;;;;18.50;3.08;;;;;;;6.58;93.26;100400.56;5073846;28;20044;-84
2023/12/22 04:29:22;;;;;;;15.63;3.38;;;;;;;6.58;93.78;100407.59;5073872;28;20097;-85
2023/12/22 04:31:48;;;;;;;20.30;3.10;;;;;;;6.58;94.54;100410.22;5070305;28;20033;-85
2023/12/22 04:34:14;;;;;;;16.98;3.47;;;;;;;6.57;94.55;100414.59;5072235;28;20500;-84
2023/12/22 04:36:40;;;;;;;11.30;2.83;;;;;;;6.53;93.87;100410.28;5072297;28;20025;-85
2023/12/22 04:39:06;;;;;;;17.95;2.92;;;;;;;6.58;93.06;100413.72;5051263;28;20495;-85
2023/12/22 04:41:32;;;;;;;15.60;2.90;;;;;;;6.58;92.40;100413.72;5054460;28;20090;-85
2023/12/22 04:43:58;;;;;;;24.92;3.55;;;;;;;6.60;93.35;100404.06;5069701;28;20086;-85
2023/12/22 04:46:23;;;;;;;15.60;3.03;;;;;;;6.64;90.86;100408.38;5068604;28;20035;-84
2023/12/22 04:48:49;;;;;;;21.95;3.72;;;;;;;6.63;92.15;100405.78;5065457;28;20140;-84
2023/12/22 04:51:14;;;;;;;15.68;3.35;;;;;;;6.63;91.50;100392.63;5057639;28;20464;-84
2023/12/22 04:53:40;;;;;;;17.92;3.50;;;;;;;6.67;92.05;100399.56;5073115;28;20039;-85
2023/12/22 04:56:05;;;;;;;15.80;3.00;;;;;;;6.62;92.44;100399.63;5071772;28;20441;-85
2023/12/22 04:58:31;;;;;;;17.75;2.95;;;;;;;6.66;93.53;100405.72;5062784;28;20039;-84
2023/12/22 05:00:56;;;;;;;12.80;3.20;;;;;;;6.65;92.95;100412.75;5071813;28;20093;-85
2023/12/22 05:03:22;;;;;;;13.23;2.83;;;;;;;6.70;93.21;100417.97;5058856;28;20036;-85
2023/12/22 05:05:47;;;;;;;16.45;3.20;;;;;;;6.68;93.16;100412.72;5066464;28;20098;-84
2023/12/22 05:08:13;;;;;;;14.63;3.08;;;;;;;6.68;93.70;100417.97;5055312;28;20115;-85
2023/12/22 05:10:38;;;;;;;14.30;3.03;;;;;;;6.70;93.29;100419.69;5069702;28;20442;-85
2023/12/22 05:13:04;;;;;;;20.85;3.05;;;;;;;6.70;93.90;100410.06;5062068;28;20415;-85
2023/12/22 05:15:29;;;;;;;15.85;3.03;;;;;;;6.71;94.37;100422.31;5054564;28;20040;-85
2023/12/22 05:17:55;;;;;;;10.82;2.75;;;;;;;6.80;95.52;100416.06;5064608;28;20036;-85
2023/12/22 05:20:20;;;;;;;12.88;2.58;;;;;;;6.81;95.33;100418.69;5066576;28;20079;-85
2023/12/22 05:22:46;;;;;;;13.88;2.90;;;;;;;6.87;95.39;100422.97;5071111;28;20040;-85
2023/12/22 05:25:13;;;;;;;18.30;2.97;;;;;;;6.88;96.67;100441.41;5071587;28;20039;-86
2023/12/22 05:27:39;;;;;;;10.95;2.80;;;;;;;6.88;97.80;100411.59;5073019;28;20043;-85
2023/12/22 05:30:05;;;;;;;20.80;2.58;;;;;;;6.87;100.00;100408.09;5069328;28;20539;-85
2023/12/22 05:32:31;;;;;;;17.13;3.03;;;;;;;6.86;100.00;100406.31;5071692;28;20044;-84
2023/12/22 05:34:56;;;;;;;13.27;2.88;;;;;;;6.84;100.00;100425.66;5069973;28;20049;-83
2023/12/22 05:37:22;;;;;;;15.23;2.90;;;;;;;6.81;100.00;100412.56;5068378;28;20172;-83
2023/12/22 05:39:47;;;;;;;21.60;4.18;;;;;;;6.82;100.00;100411.66;5072744;28;20036;-83
2023/12/22 05:42:13;;;;;;;18.67;3.95;;;;;;;6.81;100.00;100400.25;5054599;28;20032;-83
2023/12/22 05:44:38;;;;;;;15.52;2.92;;;;;;;6.80;100.00;100395.00;5070997;28;20399;-83
2023/12/22 05:47:04;;;;;;;14.77;3.05;;;;;;;6.80;100.00;100401.16;5070502;28;20090;-83
2023/12/22 05:49:30;;;;;;;21.92;3.72;;;;;;;6.82;100.00;100411.66;5061887;28;20037;-83
2023/12/22 05:51:56;;;;;;;18.30;3.22;;;;;;;6.82;100.00;100412.50;5070915;28;20422;-84
2023/12/22 05:54:23;;;;;;;22.95;4.88;;;;;;;6.84;100.00;100405.47;5071323;28;20096;-83
2023/12/22 05:56:48;;;;;;;24.15;4.00;;;;;;;6.86;100.00;100405.47;5037220;28;20077;-83
2023/12/22 05:59:14;;;;;;;23.35;4.53;;;;;;;6.97;100.00;100400.91;5051306;28;20040;-83
2023/12/22 06:01:39;;;;;;;27.00;4.32;;;;;;;6.95;100.00;100393.91;5071375;28;20115;-84
2023/12/22 06:04:05;;;;;;;30.08;5.40;;;;;;;6.96;100.00;100407.06;5072179;28;20039;-84
2023/12/22 06:06:31;;;;;;;22.65;4.38;;;;;;;6.99;100.00;100403.53;5054691;28;20104;-83
2023/12/22 06:08:56;;;;;;;19.83;4.57;;;;;;;7.06;100.00;100392.88;5068515;28;20037;-84
2023/12/22 06:11:22;;;;;;;23.65;4.53;;;;;;;7.04;100.00;100396.44;5072256;28;20071;-84
2023/12/22 06:13:47;;;;;;;17.88;4.22;;;;;;;7.10;100.00;100405.13;5054488;28;20058;-83
2023/12/22 06:16:14;;;;;;;15.05;3.30;;;;;;;7.00;100.00;100415.81;5072709;28;20083;-84
2023/12/22 06:18:43;;;;;;;15.18;3.00;;;;;;;6.81;100.00;100380.97;5060149;28;20094;-86
2023/12/22 06:21:10;;;;;;;20.27;5.20;;;;;;;6.72;100.00;100400.38;5054412;28;20033;-86
2023/12/22 06:23:36;;;;;;;19.23;3.42;;;;;;;6.60;100.00;100383.00;5071296;28;20491;-87
2023/12/22 06:26:07;;;;;;;19.35;4.85;;;;;;;6.57;100.00;100400.56;5054015;28;20071;-87
2023/12/22 06:28:32;;;;;;;;;;;;;;;6.54;100.00;100392.72;5063402;28;20029;-87
2023/12/22 06:30:58;;;;;;;23.60;4.47;;;;;;;6.54;100.00;100400.63;5067277;28;20287;-87
2023/12/22 06:33:23;;;;;;;28.15;5.22;;;;;;;6.52;100.00;100415.53;5036317;28;20070;-80
2023/12/22 06:35:53;;;;;;;35.92;7.35;;;;;;;6.55;100.00;100399.72;5037382;28;20035;-80
2023/12/22 06:38:19;;;;;;;32.22;6.00;;;;;;;6.62;100.00;100410.13;5070938;28;20189;-83
2023/12/22 06:40:46;;;;;;;31.80;5.90;;;;;;;6.66;100.00;100417.13;5030447;28;20055;-87
2023/12/22 06:43:12;;;;;;;37.10;6.90;;;;;;;6.70;100.00;100417.06;5054918;28;20052;-79
2023/12/22 06:45:39;;;;;;;34.88;6.57;;;;;;;6.76;100.00;100422.28;5070619;28;20044;-87
2023/12/22 06:48:06;;;;;;;41.15;6.57;;;;;;;6.72;100.00;100417.94;5072161;28;20055;-84
2023/12/22 06:50:31;;;;;;;33.85;6.40;;;;;;;6.75;100.00;100410.88;5071608;28;20119;-82
2023/12/22 06:52:57;;;;;;;32.63;5.97;;;;;;;6.75;100.00;100416.16;5069961;28;20594;-85
2023/12/22 06:55:23;;;;;;;36.30;6.30;;;;;;;6.84;100.00;100417.78;5069813;28;20036;-86
2023/12/22 06:57:49;;;;;;;30.92;7.88;;;;;;;6.91;100.00;100408.91;5052276;28;20404;-87
2023/12/22 07:00:15;;;;;;;44.83;8.85;;;;;;;6.94;100.00;100408.00;5071018;28;20082;-81
2023/12/22 07:02:42;;;;;;;30.95;5.93;;;;;;;6.95;100.00;100410.63;5070879;28;20142;-87
2023/12/22 07:05:22;;;;;;;40.97;6.75;;;;;;;6.97;100.00;100406.16;5027401;28;20045;-82
2023/12/22 07:07:48;;;;;;;43.30;6.45;;;;;;;6.93;100.00;100391.31;5058052;28;20036;-86
2023/12/22 07:10:14;;;;;;;37.67;7.22;;;;;;;7.02;100.00;100398.22;5053611;28;20403;-85
2023/12/22 07:12:40;;;;;;;28.05;6.30;;;;;;;7.02;100.00;100385.03;5036881;28;20083;-78
2023/12/22 07:15:09;;;;;;;43.60;7.35;;;;;;;7.02;100.00;100382.41;5070271;28;20086;-87
2023/12/22 07:17:35;;;;;;;35.72;6.03;;;;;;;7.08;100.00;100395.50;5050339;28;20131;-86
2023/12/22 07:20:02;;;;;;;41.65;7.03;;;;;;;7.09;100.00;100389.34;5055130;28;20083;-83
2023/12/22 07:22:29;;;;;;;29.13;7.25;;;;;;;7.12;100.00;100402.44;5046782;28;20064;-83
2023/12/22 07:24:55;;;;;;;47.42;8.43;;;;;;;7.19;100.00;100398.84;5071615;28;20074;-86
2023/12/22 07:27:21;;;;;;;45.05;7.22;;;;;;;7.21;100.00;100393.56;5050499;28;20080;-86
2023/12/22 07:29:46;;;;;;;42.53;7.65;;;;;;;7.24;100.00;100393.50;5082074;28;20045;-84
2023/12/22 07:32:12;;;;;;;35.60;6.53;;;;;;;7.26;100.00;100389.94;5059038;28;20058;-87
2023/12/22 07:34:38;;;;;;;38.85;6.82;;;;;;;7.27;100.00;100393.44;5071517;28;20067;-86
2023/12/22 07:37:06;;;;;;;41.35;6.88;;;;;;;7.25;100.00;100380.31;5033493;28;20049;-84
2023/12/22 07:39:32;;;;;;;31.83;6.35;;;;;;;7.37;100.00;100402.97;5064508;28;20090;-85
2023/12/22 07:41:57;;;;;;;38.58;7.05;;;;;;;7.30;100.00;100398.69;5070580;28;20041;-86
2023/12/22 07:44:24;;;;;;;42.65;6.65;;;;;;;7.36;100.00;100398.56;5037438;28;20041;-85
2023/12/22 07:46:59;;;;;;;33.75;5.93;;;;;;;7.39;100.00;100405.56;5069660;28;20040;-86
2023/12/22 07:49:25;;;;;;;37.53;6.78;;;;;;;7.40;100.00;100404.69;5071660;28;20040;-83
2023/12/22 07:51:52;;;;;;;36.83;6.68;;;;;;;7.39;100.00;100389.75;5053818;28;20032;-83
2023/12/22 07:54:18;;;;;;;28.27;5.65;;;;;;;7.43;100.00;100391.47;5073963;28;20159;-85
2023/12/22 07:56:44;;;;;;;30.50;6.15;;;;;;;7.46;100.00;100396.66;5073697;28;20115;-85
2023/12/22 07:59:09;;;;;;;40.42;6.50;;;;;;;7.45;100.00;100390.53;5090620;28;20597;-86
2023/12/22 08:01:35;;;;;;;35.08;6.07;;;;;;;7.44;100.00;100395.81;5074098;28;20603;-84
2023/12/22 08:04:00;;;;;;;34.40;5.82;;;;;;;7.47;100.00;100403.69;5059441;28;20040;-86
2023/12/22 08:06:29;;;;;;;35.30;6.25;;;;;;;7.49;100.00;100393.97;5037999;28;20049;-86
2023/12/22 08:08:54;;;;;;;34.35;8.20;;;;;;;7.52;100.00;100386.91;5070207;28;20514;-86
2023/12/22 08:11:20;;;;;;;27.52;5.90;;;;;;;7.56;100.00;100392.97;5073553;28;20044;-85
2023/12/22 08:13:47;;;;;;;31.52;5.93;;;;;;;7.54;100.00;100395.66;5074825;28;20076;-86
2023/12/22 08:16:12;;;;;;;26.40;5.93;;;;;;;7.56;100.00;100392.97;5075066;28;20024;-86
2023/12/22 08:18:37;;;;;;;32.03;5.18;;;;;;;7.59;100.00;100386.78;5074823;28;20039;-86
2023/12/22 08:21:03;;;;;;;30.02;5.35;;;;;;;7.59;100.00;100387.69;5073571;28;20060;-84
2023/12/22 08:23:29;;;;;;;21.38;4.90;;;;;;;7.64;100.00;100392.84;5090118;28;20085;-81
2023/12/22 08:25:54;;;;;;;27.02;5.00;;;;;;;7.65;100.00;100410.41;5073986;28;20090;-86
2023/12/22 08:28:20;;;;;;;24.10;4.60;;;;;;;7.69;100.00;100386.63;5060669;28;20547;-84
2023/12/22 08:30:45;;;;;;;28.88;5.22;;;;;;;7.71;100.00;100395.34;5073225;28;20094;-86
2023/12/22 08:33:11;;;;;;;21.98;4.75;;;;;;;7.68;100.00;100387.50;5053121;28;20112;-83
2023/12/22 08:35:36;;;;;;;24.13;5.13;;;;;;;7.71;100.00;100381.31;5043061;28;20120;-85
2023/12/22 08:38:02;;;;;;;22.02;5.13;;;;;;;7.77;100.00;100388.25;5068818;28;20052;-84
2023/12/22 08:40:27;;;;;;;26.20;4.03;;;;;;;7.74;100.00;100376.88;5074528;28;20036;-86
2023/12/22 08:42:59;;;;;;;16.80;4.38;;;;;;;7.81;100.00;100382.03;5072589;28;20029;-84
2023/12/22 08:45:28;;;;;;;21.40;5.13;;;;;;;7.79;100.00;100368.88;5072351;28;20074;-85
2023/12/22 08:47:55;;;;;;;23.42;4.07;;;;;;;7.81;100.00;100385.53;5044547;28;20094;-85
2023/12/22 08:50:21;;;;;;;17.27;4.22;;;;;;;7.87;100.00;100366.97;5070961;28;20035;-84
2023/12/22 08:52:46;;;;;;;14.20;3.15;;;;;;;7.85;100.00;100370.53;5058725;28;20036;-86
2023/12/22 08:55:12;;;;;;;18.10;3.78;;;;;;;7.84;100.00;100372.31;5070957;28;20399;-85
2023/12/22 08:57:37;;;;;;;13.50;3.20;;;;;;;7.88;100.00;100366.06;5066747;28;20060;-83
2023/12/22 09:00:03;;;;;;;12.48;3.53;;;;;;;7.90;100.00;100372.19;5072459;28;20041;-84
2023/12/22 09:02:29;;;;;;;15.70;3.13;;;;;;;7.94;100.00;100365.97;5058369;28;20068;-85
2023/12/22 09:04:54;;;;;;;14.60;3.28;;;;;;;7.92;100.00;100358.97;5072896;28;20059;-85
2023/12/22 09:07:22;;;;;;;12.38;3.55;;;;;;;7.93;100.00;100361.56;5049426;28;20033;-86
2023/12/22 09:09:47;;;;;;;16.58;3.05;;;;;;;8.00;100.00;100374.66;5055363;28;20131;-85
2023/12/22 09:12:13;;;;;;;16.38;3.08;;;;;;;8.04;100.00;100364.03;5070254;28;20139;-84
2023/12/22 09:14:38;;;;;;;10.25;2.83;;;;;;;8.11;100.00;100386.75;5072853;28;20036;-85
2023/12/22 09:17:04;;;;;;;12.05;3.10;;;;;;;8.15;100.00;100384.91;5071712;28;20380;-86
2023/12/22 09:19:33;;;;;;;9.52;2.90;;;;;;;8.13;100.00;100377.00;5069196;28;20063;-86
2023/12/22 09:21:58;;;;;;;12.15;2.50;;;;;;;8.16;100.00;100381.38;5072965;28;20387;-85
2023/12/22 09:24:24;;;;;;;8.95;2.15;;;;;;;8.17;100.00;100377.84;5072665;28;20032;-84
2023/12/22 09:26:50;;;;;;;9.90;2.20;;;;;;;8.11;100.00;100370.03;5055337;28;20049;-84
2023/12/22 09:29:17;;;;;;;13.25;2.75;;;;;;;8.15;100.00;100375.22;5072059;28;20090;-84
2023/12/22 09:31:42;;;;;;;8.07;2.45;;;;;;;8.10;100.00;100361.25;5069402;28;20129;-83
2023/12/22 09:34:08;;;;;;;11.10;2.58;;;;;;;8.12;100.00;100355.97;5065302;28;20112;-84
2023/12/22 09:36:33;;;;;;;10.45;2.55;;;;;;;8.09;100.00;100351.63;5072728;28;20115;-84
2023/12/22 09:38:59;;;;;;;7.22;2.42;;;;;;;8.12;100.00;100361.25;5050631;28;20045;-85
2023/12/22 09:41:24;;;;;;;6.88;2.03;;;;;;;8.15;100.00;100350.63;5066451;28;20046;-84
2023/12/22 09:43:50;;;;;;;9.95;2.83;;;;;;;8.14;100.00;100346.25;5063139;28;20085;-85
2023/12/22 09:46:20;;;;;;;12.20;1.80;;;;;;;8.15;100.00;100371.72;5068735;28;20045;-86
2023/12/22 09:48:46;;;;;;;9.98;2.20;;;;;;;8.20;100.00;100364.59;5060876;28;20044;-86
2023/12/22 09:51:14;;;;;;;6.72;1.90;;;;;;;8.23;100.00;100359.25;5064082;28;20041;-84
2023/12/22 09:53:41;;;;;;;7.72;2.05;;;;;;;8.31;100.00;100359.97;5063888;28;20036;-86
2023/12/22 09:56:07;;;;;;;7.80;2.05;;;;;;;8.45;100.00;100353.56;5062825;28;20045;-83
2023/12/22 09:58:35;;;;;;;7.88;2.05;;;;;;;8.43;100.00;100350.94;5063385;28;20067;-82
2023/12/22 10:01:05;;;;;;;6.20;1.88;;;;;;;8.53;100.00;100349.00;5072069;28;20105;-82
2023/12/22 10:03:33;;;;;;;12.98;2.85;;;;;;;8.54;100.00;100356.88;5057135;28;20709;-83
2023/12/22 10:05:59;;;;;;;4.32;1.50;;;;;;;8.56;100.00;100370.06;5083502;28;20032;-86
2023/12/22 10:08:26;;;;;;;10.18;2.70;;;;;;;8.56;100.00;100372.69;5071949;28;20048;-85
2023/12/22 10:10:52;;;;;;;8.40;2.13;;;;;;;8.62;100.00;100369.91;5071374;28;20044;-84
2023/12/22 10:13:18;;;;;;;8.00;2.03;;;;;;;8.68;100.00;100367.16;5072573;28;20056;-86
2023/12/22 10:15:45;;;;;;;10.45;2.05;;;;;;;8.67;100.00;100360.13;5056867;28;20075;-85
2023/12/22 10:18:10;;;;;;;6.85;2.78;;;;;;;8.66;100.00;100360.19;5071292;28;20029;-86
2023/12/22 10:20:36;;;;;;;8.52;1.88;;;;;;;8.72;100.00;100374.09;5070906;28;20717;-83
2023/12/22 10:23:02;;;;;;;13.52;2.58;;;;;;;8.72;100.00;100381.16;5071351;28;20037;-82
2023/12/22 10:25:32;;;;;;;11.00;2.17;;;;;;;8.74;100.00;100356.44;5036411;28;20036;-83
2023/12/22 10:27:58;;;;;;;6.35;1.90;;;;;;;8.75;100.00;100362.59;5067499;28;20503;-81
2023/12/22 10:30:26;;;;;;;9.15;1.95;;;;;;;8.77;100.00;100364.28;5053549;28;20045;-82
2023/12/22 10:32:51;;;;;;;12.13;2.40;;;;;;;8.78;100.00;100365.19;5031841;28;20036;-83
2023/12/22 10:35:17;;;;;;;6.25;1.70;;;;;;;8.82;100.00;100354.50;5063874;28;20040;-83
2023/12/22 10:37:43;;;;;;;9.57;1.98;;;;;;;8.87;100.00;100361.47;5071221;28;20127;-82
2023/12/22 10:40:09;;;;;;;7.32;1.80;;;;;;;8.91;100.00;100376.34;5053088;28;20067;-82
2023/12/22 10:42:35;;;;;;;8.02;1.88;;;;;;;8.89;100.00;100354.38;5070062;28;20048;-82
2023/12/22 10:45:01;;;;;;;5.53;1.65;;;;;;;8.91;100.00;100360.50;5071721;28;20124;-82
2023/12/22 10:47:28;;;;;;;7.43;2.15;;;;;;;8.89;100.00;100362.28;5067803;28;20123;-82
2023/12/22 10:49:54;;;;;;;7.57;1.92;;;;;;;8.93;100.00;100369.25;5044394;28;20545;-82
2023/12/22 10:52:20;;;;;;;3.90;1.70;;;;;;;8.93;100.00;100358.69;5070981;28;20040;-82
2023/12/22 10:54:46;;;;;;;8.32;1.70;;;;;;;8.91;100.00;100369.28;5062849;28;20028;-82
2023/12/22 10:57:11;;;;;;;9.13;2.10;;;;;;;8.98;100.00;100362.97;5052170;28;20091;-82
2023/12/22 10:59:47;;;;;;;7.57;1.90;;;;;;;9.01;100.00;100377.88;5056136;28;20052;-82
2023/12/22 11:02:17;;;;;;;6.93;1.83;;;;;;;8.99;100.00;100351.47;5069318;28;20071;-82
2023/12/22 11:04:56;;;;;;;10.93;2.33;;;;;;;9.00;100.00;100357.63;5058848;28;20380;-82
2023/12/22 11:07:24;;;;;;;8.57;1.73;;;;;;;9.07;100.00;100356.56;5063815;28;20061;-82
2023/12/22 11:09:54;;;;;;;9.65;2.72;;;;;;;9.07;100.00;100368.94;5041344;28;20037;-82
2023/12/22 11:12:20;;;;;;;8.55;2.00;;;;;;;9.07;100.00;100359.22;5061895;28;20491;-81
2023/12/22 11:14:50;;;;;;;5.95;1.58;;;;;;;9.12;100.00;100364.41;5062015;28;20032;-82